Time;durP1;ratioP1;P1;durP2;ratioP2;P2;SDS_P1;SDS_P2;PMS_P1;PMS_P2;Temp;Humidity;BMP_temperature;BMP_pressure;BME280_temperature;BME280_humidity;BME280_pressure;Samples;Min_cycle;Max_cycle;Signal;HPM_P1;HPM_P2
2021/07/01 00:00:46;;;;;;;4.10;2.90;;;;;;;18.21;78.84;96122.78;127929;1093;24533;-83
2021/07/01 00:03:27;;;;;;;4.75;3.03;;;;;;;18.36;79.20;96126.66;127933;1093;26295;-86
2021/07/01 00:05:59;;;;;;;5.03;3.20;;;;;;;18.49;79.36;96124.73;127914;1093;22783;-87
2021/07/01 00:08:30;;;;;;;5.83;3.55;;;;;;;18.60;79.38;96125.81;127925;1093;24359;-85
2021/07/01 00:11:02;;;;;;;5.70;3.58;;;;;;;18.66;79.08;96119.09;127932;1093;22793;-85
2021/07/01 00:13:34;;;;;;;4.95;3.63;;;;;;;18.66;79.05;96119.88;127959;1092;26291;-84
2021/07/01 00:16:06;;;;;;;4.10;3.63;;;;;;;18.71;78.58;96123.43;127965;1093;22793;-85
2021/07/01 00:18:37;;;;;;;4.68;3.35;;;;;;;18.71;78.70;96128.80;128022;1093;26293;-85
2021/07/01 00:21:09;;;;;;;4.83;3.10;;;;;;;18.65;78.33;96114.84;128007;1093;22763;-85
2021/07/01 00:23:40;;;;;;;6.13;3.40;;;;;;;18.56;78.32;96116.86;128038;1093;22947;-85
2021/07/01 00:26:12;;;;;;;4.20;3.50;;;;;;;18.49;78.22;96116.67;127914;1093;24115;-83
2021/07/01 00:28:44;;;;;;;5.53;3.45;;;;;;;18.42;78.14;96108.41;127902;1093;22807;-84
2021/07/01 00:31:15;;;;;;;3.65;3.25;;;;;;;18.34;78.08;96121.63;127929;1093;25073;-85
2021/07/01 00:33:47;;;;;;;4.25;3.35;;;;;;;18.32;78.35;96123.88;127912;1093;24394;-85
2021/07/01 00:36:18;;;;;;;4.70;3.15;;;;;;;18.28;78.36;96128.34;127901;1093;22827;-84
2021/07/01 00:38:50;;;;;;;3.80;3.03;;;;;;;18.20;78.59;96128.48;127925;1093;27289;-84
2021/07/01 00:41:22;;;;;;;3.53;3.18;;;;;;;18.10;78.56;96127.05;127930;1093;22783;-84
2021/07/01 00:43:54;;;;;;;5.15;3.25;;;;;;;18.01;78.80;96129.06;127938;1093;22794;-84
2021/07/01 00:46:25;;;;;;;3.48;2.90;;;;;;;17.99;79.09;96128.62;127877;1092;22754;-84
2021/07/01 00:48:57;;;;;;;3.75;3.30;;;;;;;18.01;79.31;96118.33;127921;1093;24858;-85
2021/07/01 00:51:28;;;;;;;3.53;2.83;;;;;;;17.96;79.34;96110.52;127938;1092;25300;-86
2021/07/01 00:54:00;;;;;;;4.45;3.00;;;;;;;17.90;79.05;96117.25;127902;1092;23328;-85
2021/07/01 00:56:37;;;;;;;4.38;2.90;;;;;;;17.88;79.05;96122.17;127833;1093;25288;-85
2021/07/01 00:59:08;;;;;;;3.75;3.10;;;;;;;17.87;79.55;96121.36;128121;1093;81540;-83
2021/07/01 01:01:40;;;;;;;5.50;3.10;;;;;;;17.85;79.29;96125.50;128049;1093;34573;-85
2021/07/01 01:04:12;;;;;;;5.83;3.23;;;;;;;17.77;79.43;96127.98;127991;1093;25023;-84
2021/07/01 01:06:44;;;;;;;3.67;2.80;;;;;;;17.71;79.71;96123.94;127945;1092;22796;-85
2021/07/01 01:09:15;;;;;;;3.85;3.10;;;;;;;17.74;79.98;96120.61;127885;1092;22856;-82
2021/07/01 01:11:47;;;;;;;3.43;2.80;;;;;;;17.80;80.20;96121.94;127820;1093;24387;-85
2021/07/01 01:14:18;;;;;;;4.03;3.20;;;;;;;17.90;80.36;96128.76;127815;1093;23003;-82
2021/07/01 01:16:50;;;;;;;3.75;2.93;;;;;;;18.04;80.59;96123.83;127679;1093;23799;-82
2021/07/01 01:19:22;;;;;;;4.45;3.03;;;;;;;18.14;80.32;96122.56;127876;1093;23758;-84
2021/07/01 01:21:53;;;;;;;3.90;2.60;;;;;;;18.21;80.28;96117.42;127777;1093;24283;-85
2021/07/01 01:24:25;;;;;;;3.15;2.85;;;;;;;18.24;80.07;96105.22;127898;1093;22830;-88
2021/07/01 01:26:57;;;;;;;2.73;2.53;;;;;;;18.23;79.69;96101.75;127813;1093;23305;-84
2021/07/01 01:29:28;;;;;;;2.73;2.35;;;;;;;18.21;79.05;96104.00;127572;1093;25954;-83
2021/07/01 01:32:00;;;;;;;5.50;2.60;;;;;;;18.18;79.06;96102.00;127779;1093;22920;-85
2021/07/01 01:34:31;;;;;;;4.55;2.95;;;;;;;18.12;79.02;96108.70;127565;1093;22880;-86
2021/07/01 01:37:03;;;;;;;4.55;3.05;;;;;;;18.05;78.74;96106.61;127814;1093;23904;-85
2021/07/01 01:39:34;;;;;;;4.73;3.25;;;;;;;17.99;78.56;96115.20;127866;1093;23171;-84
2021/07/01 01:42:07;;;;;;;3.98;2.73;;;;;;;17.86;79.00;96121.70;127487;1093;23626;-85
2021/07/01 01:44:38;;;;;;;5.00;3.23;;;;;;;17.76;79.19;96117.59;127770;1093;26034;-82
2021/07/01 01:47:19;;;;;;;4.70;3.08;;;;;;;17.68;79.49;96113.08;127714;1093;22796;-84
2021/07/01 01:49:51;;;;;;;4.93;3.03;;;;;;;17.67;79.94;96117.66;127650;1093;23597;-85
2021/07/01 01:52:22;;;;;;;6.65;3.08;;;;;;;17.77;80.28;96124.52;127919;1092;36455;-83
2021/07/01 01:54:54;;;;;;;3.18;2.88;;;;;;;17.79;80.00;96128.42;127930;1093;24426;-85
2021/07/01 01:57:27;;;;;;;4.33;2.78;;;;;;;17.70;80.05;96125.06;127936;1093;23336;-89
2021/07/01 01:59:59;;;;;;;5.30;3.18;;;;;;;17.65;80.26;96133.30;127995;1093;27528;-84
2021/07/01 02:02:30;;;;;;;5.23;3.00;;;;;;;17.66;80.41;96134.09;127902;1093;22803;-84
2021/07/01 02:05:02;;;;;;;3.45;2.80;;;;;;;17.71;80.60;96131.20;127902;1093;22673;-85
2021/07/01 02:07:34;;;;;;;3.90;3.25;;;;;;;17.76;80.47;96131.78;127893;1092;23746;-87
2021/07/01 02:10:08;;;;;;;4.70;3.00;;;;;;;17.72;80.40;96136.22;127724;1093;22826;-87
2021/07/01 02:12:40;;;;;;;4.25;2.90;;;;;;;17.66;80.23;96136.77;127962;1093;24331;-85
2021/07/01 02:15:14;;;;;;;4.08;3.20;;;;;;;17.60;80.47;96130.86;127997;1093;22832;-84
2021/07/01 02:17:46;;;;;;;5.65;3.63;;;;;;;17.57;80.70;96126.14;127897;1093;23238;-84
2021/07/01 02:20:20;;;;;;;4.10;3.08;;;;;;;17.55;80.67;96124.92;127922;1093;24376;-86
2021/07/01 02:22:53;;;;;;;3.70;3.00;;;;;;;17.55;81.05;96122.23;127924;1093;22954;-85
2021/07/01 02:25:24;;;;;;;4.33;3.18;;;;;;;17.61;81.08;96132.42;127913;1093;31966;-84
2021/07/01 02:27:56;;;;;;;5.45;2.85;;;;;;;17.61;80.69;96131.64;127939;1091;25183;-85
2021/07/01 02:30:27;;;;;;;4.70;3.43;;;;;;;17.56;80.82;96123.80;127944;1093;22820;-85
2021/07/01 02:32:59;;;;;;;5.05;3.15;;;;;;;17.50;80.97;96128.61;127913;1093;24599;-85
2021/07/01 02:35:30;;;;;;;5.03;3.10;;;;;;;17.54;81.17;96116.09;127877;1093;23364;-86
2021/07/01 02:38:03;;;;;;;3.43;3.13;;;;;;;17.58;81.21;96116.98;127919;1093;24216;-85
2021/07/01 02:40:34;;;;;;;3.80;3.00;;;;;;;17.64;81.24;96118.34;127901;1093;23521;-84
2021/07/01 02:43:05;;;;;;;7.60;3.28;;;;;;;17.66;81.14;96124.14;127944;1093;23060;-87
2021/07/01 02:45:37;;;;;;;4.48;2.98;;;;;;;17.63;80.92;96122.14;127953;1093;22777;-84
2021/07/01 02:48:09;;;;;;;5.53;3.38;;;;;;;17.57;80.95;96123.46;128006;1092;27088;-84
2021/07/01 02:50:41;;;;;;;5.73;3.23;;;;;;;17.51;80.87;96124.81;127991;1093;24179;-84
2021/07/01 02:53:13;;;;;;;3.78;2.95;;;;;;;17.43;80.87;96131.05;127896;1092;23704;-84
2021/07/01 02:55:44;;;;;;;4.35;3.50;;;;;;;17.33;80.93;96131.50;127933;1093;26815;-83
2021/07/01 02:58:16;;;;;;;5.18;3.35;;;;;;;17.24;81.12;96128.13;127914;1093;26242;-83
2021/07/01 03:00:47;;;;;;;4.03;3.03;;;;;;;17.17;81.35;96137.50;127912;1093;23719;-86
2021/07/01 03:03:19;;;;;;;5.45;3.20;;;;;;;17.12;81.75;96136.91;127945;1093;28102;-84
2021/07/01 03:05:50;;;;;;;3.30;2.93;;;;;;;17.08;81.99;96133.34;127934;1093;23161;-83
2021/07/01 03:08:22;;;;;;;6.35;3.83;;;;;;;17.01;82.23;96131.19;127929;1093;24443;-83
2021/07/01 03:10:53;;;;;;;4.80;3.15;;;;;;;16.98;82.45;96134.53;127901;1093;22800;-85
2021/07/01 03:13:24;;;;;;;3.30;2.93;;;;;;;17.00;82.71;96140.33;127930;1093;26375;-86
2021/07/01 03:15:56;;;;;;;3.85;3.18;;;;;;;17.03;83.27;96133.53;127917;1093;23804;-85
2021/07/01 03:18:27;;;;;;;4.65;3.43;;;;;;;17.06;82.90;96136.35;127932;1092;24816;-84
2021/07/01 03:20:59;;;;;;;5.23;3.28;;;;;;;17.13;83.12;96133.12;127945;1093;22923;-83
2021/07/01 03:23:30;;;;;;;4.00;2.88;;;;;;;17.14;82.80;96124.75;127929;1093;24009;-84
2021/07/01 03:26:02;;;;;;;5.23;3.38;;;;;;;17.12;82.82;96129.66;127930;1093;27770;-84
2021/07/01 03:28:33;;;;;;;5.30;3.13;;;;;;;17.13;82.60;96128.54;127920;1092;22805;-85
2021/07/01 03:31:05;;;;;;;5.38;2.83;;;;;;;17.17;82.68;96123.30;127948;1092;22836;-85
2021/07/01 03:33:37;;;;;;;4.43;2.90;;;;;;;17.24;82.35;96128.91;127894;1093;23505;-84
2021/07/01 03:36:09;;;;;;;4.00;2.40;;;;;;;17.30;81.76;96121.42;127999;1093;24363;-85
2021/07/01 03:38:42;;;;;;;7.60;3.33;;;;;;;17.33;81.62;96121.56;127997;1093;26395;-86
2021/07/01 03:41:13;;;;;;;4.70;3.23;;;;;;;17.35;81.29;96121.23;127905;1093;31283;-82
2021/07/01 03:43:47;;;;;;;4.73;3.38;;;;;;;17.36;80.87;96120.89;127951;1093;25858;-83
2021/07/01 03:46:18;;;;;;;5.85;3.00;;;;;;;17.34;80.65;96131.16;127928;1092;23010;-84
2021/07/01 03:48:49;;;;;;;4.98;3.15;;;;;;;17.31;80.69;96139.84;127933;1093;26273;-85
2021/07/01 03:51:21;;;;;;;5.35;3.40;;;;;;;17.29;81.19;96141.30;127950;1093;24476;-83
2021/07/01 03:53:52;;;;;;;3.63;2.70;;;;;;;17.23;81.25;96143.42;127915;1093;22772;-87
2021/07/01 03:56:23;;;;;;;7.68;3.30;;;;;;;17.20;81.13;96150.23;127962;1092;24541;-82
2021/07/01 03:58:54;;;;;;;4.53;2.90;;;;;;;17.15;81.41;96138.92;127912;1093;23624;-83
2021/07/01 04:01:26;;;;;;;4.38;3.03;;;;;;;17.15;81.35;96138.92;127950;1092;22793;-84
2021/07/01 04:03:57;;;;;;;3.68;2.70;;;;;;;17.15;81.31;96139.70;127919;1093;25703;-84
2021/07/01 04:06:29;;;;;;;3.58;2.38;;;;;;;17.14;81.22;96142.72;127827;1092;24457;-87
2021/07/01 04:09:00;;;;;;;4.80;2.98;;;;;;;17.14;81.38;96146.17;127891;1093;22798;-85
2021/07/01 04:11:31;;;;;;;6.03;3.50;;;;;;;17.15;81.32;96141.59;127766;1093;22768;-85
2021/07/01 04:14:03;;;;;;;5.65;3.10;;;;;;;17.16;81.61;96138.59;127900;1093;23861;-85
2021/07/01 04:16:34;;;;;;;4.40;2.68;;;;;;;17.26;81.81;96137.39;127868;1093;22791;-85
2021/07/01 04:19:06;;;;;;;3.28;2.60;;;;;;;17.36;81.96;96142.33;127894;1092;24109;-86
2021/07/01 04:21:37;;;;;;;5.10;3.18;;;;;;;17.44;81.75;96128.03;127950;1092;24649;-88
2021/07/01 04:24:09;;;;;;;4.43;2.90;;;;;;;17.52;81.76;96123.70;127960;1093;23830;-84
2021/07/01 04:26:40;;;;;;;6.43;2.73;;;;;;;17.64;81.92;96117.56;127923;1093;22786;-87
2021/07/01 04:29:12;;;;;;;5.27;3.00;;;;;;;17.66;81.31;96124.14;127936;1093;28946;-85
2021/07/01 04:31:43;;;;;;;4.70;3.38;;;;;;;17.68;81.50;96126.48;127921;1093;22853;-84
2021/07/01 04:34:14;;;;;;;4.88;3.88;;;;;;;17.65;81.15;96129.84;127872;1093;23313;-85
2021/07/01 04:36:46;;;;;;;4.83;3.83;;;;;;;17.67;81.25;96123.02;127886;1092;30170;-84
2021/07/01 04:39:17;;;;;;;5.60;3.40;;;;;;;17.71;81.25;96129.30;127954;1093;22867;-84
2021/07/01 04:41:48;;;;;;;5.38;3.80;;;;;;;17.73;81.14;96129.75;127904;1093;22836;-83
2021/07/01 04:44:20;;;;;;;5.80;3.30;;;;;;;17.66;81.08;96134.87;127918;1093;22807;-84
2021/07/01 04:46:52;;;;;;;6.37;3.67;;;;;;;17.56;81.28;96129.16;127898;1093;22819;-89
2021/07/01 04:49:23;;;;;;;5.58;3.35;;;;;;;17.50;81.46;96136.65;127906;1094;26400;-85
2021/07/01 04:51:55;;;;;;;5.73;3.73;;;;;;;17.48;81.53;96144.24;127929;1093;26283;-84
2021/07/01 04:54:26;;;;;;;5.18;3.53;;;;;;;17.47;81.66;96156.08;127879;1093;23581;-86
2021/07/01 04:56:57;;;;;;;4.90;3.30;;;;;;;17.41;81.86;96154.72;127906;1093;22810;-84
2021/07/01 04:59:29;;;;;;;3.73;2.80;;;;;;;17.43;81.90;96165.88;127926;1093;22768;-84
2021/07/01 05:02:00;;;;;;;3.63;3.20;;;;;;;17.49;81.41;96168.03;127919;1092;22799;-87
2021/07/01 05:04:32;;;;;;;5.38;3.03;;;;;;;17.59;81.26;96174.83;127917;1093;25006;-85
2021/07/01 05:07:03;;;;;;;6.03;3.45;;;;;;;17.68;81.70;96180.91;127686;1092;26305;-85
2021/07/01 05:09:34;;;;;;;4.63;3.68;;;;;;;17.69;81.49;96176.34;127900;1093;26242;-86
2021/07/01 05:12:06;;;;;;;3.48;3.00;;;;;;;17.65;81.55;96172.73;127855;1093;23500;-86
2021/07/01 05:14:38;;;;;;;3.83;3.15;;;;;;;17.60;81.74;96178.33;127936;1093;26249;-83
2021/07/01 05:17:09;;;;;;;3.98;2.70;;;;;;;17.56;81.37;96178.19;127992;1093;22791;-83
2021/07/01 05:19:40;;;;;;;3.98;3.08;;;;;;;17.47;81.10;96172.16;127977;1093;24160;-89
2021/07/01 05:22:12;;;;;;;4.75;2.93;;;;;;;17.45;81.56;96174.37;127933;1093;24740;-85
2021/07/01 05:24:43;;;;;;;4.93;3.38;;;;;;;17.43;81.80;96179.28;127916;1093;22962;-85
2021/07/01 05:27:14;;;;;;;4.65;3.08;;;;;;;17.46;82.05;96174.06;127928;1093;22895;-83
2021/07/01 05:29:46;;;;;;;8.30;3.93;;;;;;;17.44;81.84;96178.16;127948;1093;22794;-85
2021/07/01 05:32:18;;;;;;;5.63;3.63;;;;;;;17.40;81.94;96182.63;127929;1093;24135;-83
2021/07/01 05:34:49;;;;;;;5.37;3.43;;;;;;;17.39;82.13;96183.75;127877;1093;24092;-84
2021/07/01 05:37:21;;;;;;;5.63;3.75;;;;;;;17.36;81.94;96195.14;127912;1093;24084;-84
2021/07/01 05:39:52;;;;;;;4.88;3.28;;;;;;;17.33;82.17;96190.45;127923;1093;22820;-85
2021/07/01 05:42:23;;;;;;;4.73;3.60;;;;;;;17.31;82.31;96189.97;127907;1093;22786;-85
2021/07/01 05:44:55;;;;;;;4.28;3.43;;;;;;;17.31;82.24;96188.07;127884;1093;22799;-86
2021/07/01 05:47:26;;;;;;;4.63;3.38;;;;;;;17.30;82.47;96188.41;127899;1093;25077;-84
2021/07/01 05:49:57;;;;;;;5.15;3.20;;;;;;;17.28;82.65;96190.64;127653;1093;26846;-84
2021/07/01 05:52:31;;;;;;;4.83;3.38;;;;;;;17.26;82.62;96190.19;127880;1093;27727;-85
2021/07/01 05:55:03;;;;;;;4.73;3.58;;;;;;;17.24;82.67;96187.06;127933;1093;27092;-85
2021/07/01 05:57:34;;;;;;;6.58;3.75;;;;;;;17.21;82.66;96178.58;127883;1092;22831;-85
2021/07/01 06:00:08;;;;;;;4.83;3.70;;;;;;;17.21;82.91;96177.80;127871;1093;22848;-85
2021/07/01 06:02:39;;;;;;;4.38;3.05;;;;;;;17.18;82.97;96173.11;127961;1093;26666;-87
2021/07/01 06:05:12;;;;;;;4.63;3.25;;;;;;;17.19;82.99;96175.45;127921;1093;23317;-85
2021/07/01 06:07:50;;;;;;;6.28;3.35;;;;;;;17.21;83.11;96173.22;127953;1093;22786;-83
2021/07/01 06:10:25;;;;;;;5.10;3.30;;;;;;;17.24;83.12;96173.67;127905;1093;22795;-83
2021/07/01 06:12:58;;;;;;;5.08;3.45;;;;;;;17.26;83.47;96168.76;127938;1093;22803;-84
2021/07/01 06:15:33;;;;;;;5.40;3.40;;;;;;;17.26;83.67;96174.89;127894;1093;22904;-85
2021/07/01 06:18:05;;;;;;;4.15;3.50;;;;;;;17.27;83.85;96171.09;127920;1093;23607;-87
2021/07/01 06:20:36;;;;;;;5.93;3.18;;;;;;;17.30;84.01;96173.11;127908;1093;22819;-85
2021/07/01 06:23:08;;;;;;;5.85;3.20;;;;;;;17.33;84.06;96177.05;127942;1093;22857;-85
2021/07/01 06:25:40;;;;;;;5.03;3.28;;;;;;;17.38;84.09;96177.61;127987;1093;22825;-84
2021/07/01 06:28:15;;;;;;;4.05;3.20;;;;;;;17.41;84.14;96184.98;128209;1092;23459;-84
2021/07/01 06:30:48;;;;;;;4.65;3.40;;;;;;;17.47;84.37;96180.98;128036;1093;22789;-83
2021/07/01 06:33:20;;;;;;;4.40;3.20;;;;;;;17.54;84.25;96185.78;127924;1093;22849;-86
2021/07/01 06:35:55;;;;;;;5.68;3.20;;;;;;;17.62;84.32;96186.81;127891;1093;22819;-85
2021/07/01 06:38:28;;;;;;;4.60;3.30;;;;;;;17.66;84.13;96188.48;127860;1093;22813;-85
2021/07/01 06:41:04;;;;;;;5.23;3.60;;;;;;;17.73;84.42;96193.31;127920;1092;22950;-84
2021/07/01 06:43:37;;;;;;;5.63;3.63;;;;;;;17.76;84.28;96188.09;127832;1092;22957;-84
2021/07/01 06:46:08;;;;;;;4.50;3.98;;;;;;;17.79;84.18;96189.31;127919;1092;34684;-86
2021/07/01 06:48:41;;;;;;;6.30;4.30;;;;;;;17.82;84.22;96188.63;127889;1093;35840;-83
2021/07/01 06:51:13;;;;;;;8.53;4.13;;;;;;;17.83;84.32;96186.73;127922;1093;23287;-82
2021/07/01 06:53:46;;;;;;;5.03;3.88;;;;;;;17.93;84.71;96189.77;127899;1093;48225;-83
2021/07/01 06:56:17;;;;;;;5.75;4.00;;;;;;;18.02;84.48;96192.34;127945;1093;22947;-82
2021/07/01 06:58:50;;;;;;;5.73;3.73;;;;;;;18.06;84.08;96202.05;127937;1093;22752;-83
2021/07/01 07:01:22;;;;;;;5.43;3.33;;;;;;;18.12;84.28;96207.97;127928;1093;22820;-83
2021/07/01 07:03:53;;;;;;;5.90;4.15;;;;;;;18.13;83.73;96204.16;127948;1092;22826;-83
2021/07/01 07:06:28;;;;;;;7.35;4.15;;;;;;;18.15;84.06;96201.14;127927;1092;23179;-82
2021/07/01 07:09:00;;;;;;;8.23;4.43;;;;;;;18.26;84.45;96204.94;127918;1093;24139;-83
2021/07/01 07:11:35;;;;;;;4.98;3.65;;;;;;;18.35;84.48;96203.70;127939;1093;22761;-84
2021/07/01 07:14:07;;;;;;;4.93;3.95;;;;;;;18.51;84.52;96200.33;127933;1093;24459;-82
2021/07/01 07:16:42;;;;;;;3.53;3.20;;;;;;;18.57;83.73;96197.05;127956;1092;22957;-86
2021/07/01 07:19:14;;;;;;;7.05;4.08;;;;;;;18.62;83.78;96199.52;127896;1093;23275;-84
2021/07/01 07:21:50;;;;;;;5.30;4.10;;;;;;;18.71;83.79;96198.61;127941;1093;22809;-86
2021/07/01 07:24:28;;;;;;;6.98;4.08;;;;;;;18.73;83.16;96202.55;127876;1093;24411;-88
2021/07/01 07:27:00;;;;;;;4.68;3.63;;;;;;;18.71;82.45;96202.08;127934;1092;22834;-84
2021/07/01 07:29:36;;;;;;;5.50;3.80;;;;;;;18.62;82.08;96201.42;127963;1092;24046;-84
2021/07/01 07:32:09;;;;;;;7.45;4.40;;;;;;;18.56;81.74;96194.70;127742;1093;22861;-84
2021/07/01 07:34:43;;;;;;;6.10;4.13;;;;;;;18.53;81.70;96198.08;128011;1093;26388;-83
2021/07/01 07:37:15;;;;;;;8.08;4.85;;;;;;;18.52;81.75;96196.52;127950;1092;22792;-83
2021/07/01 07:39:48;;;;;;;8.20;4.23;;;;;;;18.45;81.53;96196.32;128152;1093;37932;-80
2021/07/01 07:42:21;;;;;;;6.85;4.33;;;;;;;18.43;81.62;96196.64;128221;1093;22802;-82
2021/07/01 07:44:52;;;;;;;5.13;3.60;;;;;;;18.46;81.77;96203.25;128128;1093;22836;-82
2021/07/01 07:47:25;;;;;;;5.55;3.70;;;;;;;18.42;81.33;96203.13;128129;1093;23150;-81
2021/07/01 07:49:57;;;;;;;4.60;3.98;;;;;;;18.41;81.30;96204.25;128143;1092;28442;-81
2021/07/01 07:52:32;;;;;;;5.65;3.90;;;;;;;18.42;81.20;96199.66;128135;1093;22836;-81
2021/07/01 07:55:07;;;;;;;6.48;3.68;;;;;;;18.42;81.59;96199.66;128253;1093;23709;-82
2021/07/01 07:57:41;;;;;;;4.18;3.60;;;;;;;18.35;81.01;96209.08;127874;1093;24384;-84
2021/07/01 08:00:14;;;;;;;5.63;3.98;;;;;;;18.37;81.39;96201.47;127979;1092;23444;-83
2021/07/01 08:02:51;;;;;;;5.68;3.70;;;;;;;18.37;81.20;96196.09;127966;1093;22813;-84
2021/07/01 08:05:27;;;;;;;7.15;3.53;;;;;;;18.36;80.94;96197.22;127756;1093;22796;-86
2021/07/01 08:08:00;;;;;;;5.43;4.08;;;;;;;18.29;80.73;96204.26;128021;1093;22793;-83
2021/07/01 08:10:33;;;;;;;3.85;3.10;;;;;;;18.27;80.54;96195.77;128014;1093;22793;-85
2021/07/01 08:13:07;;;;;;;4.03;3.30;;;;;;;18.25;80.49;96198.80;127888;1093;22797;-84
2021/07/01 08:15:41;;;;;;;4.88;3.15;;;;;;;18.30;80.81;96197.80;128095;1092;24167;-83
2021/07/01 08:18:26;;;;;;;5.50;2.85;;;;;;;18.40;80.92;96189.27;127892;1093;22793;-82
2021/07/01 08:20:58;;;;;;;5.08;3.35;;;;;;;18.40;80.38;96190.05;127864;1093;34540;-88
2021/07/01 08:23:30;;;;;;;6.78;3.33;;;;;;;18.43;80.60;96206.59;127703;1093;24012;-86
2021/07/01 08:26:03;;;;;;;3.78;3.03;;;;;;;18.50;80.51;96204.13;127893;1093;24128;-87
2021/07/01 08:28:34;;;;;;;4.53;2.87;;;;;;;18.61;80.69;96192.59;127882;1093;24588;-88
2021/07/01 08:31:12;;;;;;;3.70;3.10;;;;;;;18.69;80.58;96191.69;127853;1093;22787;-87
2021/07/01 08:33:46;;;;;;;4.55;3.23;;;;;;;18.76;80.24;96199.17;127952;1093;25256;-85
2021/07/01 08:36:21;;;;;;;3.28;2.78;;;;;;;18.82;80.25;96188.97;127919;1093;22835;-86
2021/07/01 08:38:54;;;;;;;4.40;2.85;;;;;;;18.91;80.32;96194.98;127803;1092;22877;-86
2021/07/01 08:41:28;;;;;;;4.78;2.90;;;;;;;18.94;79.74;96189.70;127919;1093;22794;-87
2021/07/01 08:44:01;;;;;;;4.00;3.18;;;;;;;19.00;79.64;96184.86;127952;1093;22773;-87
2021/07/01 08:46:46;;;;;;;5.45;3.68;;;;;;;19.07;79.82;96192.34;127919;1092;24133;-87
2021/07/01 08:49:32;;;;;;;4.18;3.05;;;;;;;19.07;79.31;96189.66;127965;1093;22823;-86
2021/07/01 08:52:06;;;;;;;3.03;2.58;;;;;;;19.12;79.27;96197.46;127809;1092;24235;-87
2021/07/01 08:54:39;;;;;;;3.63;2.68;;;;;;;19.19;79.29;96197.67;127577;1093;24190;-90
2021/07/01 08:57:17;;;;;;;3.73;2.90;;;;;;;19.28;78.95;96198.28;127734;1092;22848;-84
2021/07/01 08:59:54;;;;;;;4.05;2.63;;;;;;;19.33;78.60;96187.30;127878;1093;24404;-86
2021/07/01 09:02:33;;;;;;;4.33;3.07;;;;;;;19.40;78.47;96197.44;127717;1093;26427;-88
2021/07/01 09:05:12;;;;;;;7.60;3.63;;;;;;;19.46;78.11;96191.48;127888;1093;53220;-85
2021/07/01 09:07:54;;;;;;;5.65;3.10;;;;;;;19.43;77.28;96192.17;127695;1092;174395;-85
2021/07/01 09:10:28;;;;;;;4.83;3.10;;;;;;;19.33;77.06;96187.30;127863;1093;51802;-85
2021/07/01 09:13:03;;;;;;;5.48;2.95;;;;;;;19.32;77.57;96177.67;127874;1093;52330;-84
2021/07/01 09:15:36;;;;;;;3.53;2.70;;;;;;;19.43;77.66;96180.64;127787;1093;23173;-84
2021/07/01 09:18:12;;;;;;;3.70;2.73;;;;;;;19.54;78.08;96179.78;127877;1093;25553;-85
2021/07/01 09:20:44;;;;;;;2.90;2.60;;;;;;;19.65;78.31;96182.75;127794;1093;22807;-84
2021/07/01 09:23:16;;;;;;;3.20;2.80;;;;;;;19.73;77.83;96186.41;127748;1093;49417;-86
2021/07/01 09:25:48;;;;;;;4.53;2.50;;;;;;;19.84;77.40;96192.80;127884;1093;24531;-86
2021/07/01 09:28:20;;;;;;;3.13;2.83;;;;;;;19.94;77.05;96199.58;127747;1092;55349;-86
2021/07/01 09:30:54;;;;;;;6.15;3.18;;;;;;;20.01;76.85;96199.77;127890;1093;23626;-87
2021/07/01 09:33:27;;;;;;;3.25;2.95;;;;;;;20.09;76.41;96212.23;127861;1093;41739;-87
2021/07/01 09:35:58;;;;;;;4.05;3.08;;;;;;;20.22;76.61;96207.53;127751;1092;23513;-86
2021/07/01 09:38:30;;;;;;;4.48;3.20;;;;;;;20.37;77.13;96209.41;127790;1093;24421;-88
2021/07/01 09:41:02;;;;;;;6.75;3.53;;;;;;;20.49;76.64;96211.25;127712;1093;24054;-89
2021/07/01 09:43:34;;;;;;;6.60;4.15;;;;;;;20.49;75.45;96209.34;127753;1092;23045;-86
2021/07/01 09:46:11;;;;;;;7.50;4.38;;;;;;;20.38;75.05;96213.67;127922;1092;22796;-87
2021/07/01 09:48:47;;;;;;;8.83;5.23;;;;;;;20.42;75.38;96214.58;127968;1092;23267;-87
2021/07/01 09:51:19;;;;;;;6.58;4.38;;;;;;;20.50;75.67;96216.28;127868;1093;45444;-86
2021/07/01 09:53:53;;;;;;;6.45;4.45;;;;;;;20.66;75.37;96213.54;127963;1093;23232;-86
2021/07/01 09:56:38;;;;;;;5.85;4.50;;;;;;;20.68;74.50;96220.13;127908;1093;22994;-86
2021/07/01 09:59:21;;;;;;;5.90;4.40;;;;;;;20.68;74.12;96220.13;127986;1093;23906;-86
2021/07/01 10:01:53;;;;;;;7.37;4.47;;;;;;;20.75;74.65;96211.43;127935;1092;23670;-86
2021/07/01 10:04:24;;;;;;;6.33;4.63;;;;;;;20.56;73.49;96216.80;127938;1093;22897;-86
2021/07/01 10:07:09;;;;;;;5.73;4.68;;;;;;;20.34;73.29;96223.59;127913;1093;23689;-88
2021/07/01 10:09:41;;;;;;;7.20;4.55;;;;;;;20.21;73.46;96224.82;127994;1093;22780;-87
2021/07/01 10:12:25;;;;;;;5.13;4.15;;;;;;;20.18;73.85;96231.69;127919;1092;24424;-89
2021/07/01 10:15:01;;;;;;;6.70;4.90;;;;;;;20.12;73.77;96233.84;127867;1092;26550;-88
2021/07/01 10:17:32;;;;;;;8.38;4.98;;;;;;;20.06;73.24;96235.25;127846;1093;23935;-88
2021/07/01 10:20:11;;;;;;;6.70;4.70;;;;;;;20.00;73.18;96241.25;127865;1093;24108;-87
2021/07/01 10:22:43;;;;;;;7.13;5.53;;;;;;;19.94;73.88;96238.02;127955;1093;26911;-87
2021/07/01 10:25:15;;;;;;;7.98;5.63;;;;;;;19.97;74.08;96236.55;127858;1093;24330;-88
2021/07/01 10:27:47;;;;;;;9.75;5.10;;;;;;;20.00;73.67;96236.66;127919;1092;26548;-87
2021/07/01 10:30:24;;;;;;;8.60;5.03;;;;;;;20.08;73.98;96230.30;127885;1092;22811;-89
2021/07/01 10:32:57;;;;;;;7.80;4.80;;;;;;;20.27;74.32;96234.98;127902;1092;23268;-89
2021/07/01 10:35:31;;;;;;;8.30;5.78;;;;;;;20.39;74.08;96231.38;127919;1093;23540;-93
2021/07/01 10:38:13;;;;;;;7.85;5.85;;;;;;;20.38;73.50;96229.83;127910;1092;22655;-90
2021/07/01 10:40:49;;;;;;;9.58;5.38;;;;;;;20.29;73.23;96229.25;127907;1092;24304;-87
2021/07/01 10:43:38;;;;;;;6.63;5.40;;;;;;;20.24;73.24;96224.89;127896;1093;28256;-88
2021/07/01 10:46:10;;;;;;;9.25;5.58;;;;;;;20.13;72.44;96227.36;127955;1093;25264;-88
2021/07/01 10:48:42;;;;;;;7.68;5.30;;;;;;;20.10;73.12;96229.95;127955;1093;23399;-86
2021/07/01 10:51:15;;;;;;;6.18;4.93;;;;;;;20.12;73.20;96231.16;127902;1093;24209;-87
2021/07/01 10:53:47;;;;;;;5.45;4.25;;;;;;;20.10;72.42;96229.95;127959;1092;26667;-87
2021/07/01 10:56:40;;;;;;;6.50;3.75;;;;;;;20.02;71.96;96228.23;127942;1093;24382;-86
2021/07/01 10:59:13;;;;;;;5.75;4.00;;;;;;;20.01;71.83;96230.14;127994;1093;22832;-85
2021/07/01 11:01:47;;;;;;;6.40;4.23;;;;;;;19.93;71.48;96214.94;127929;1093;27045;-87
2021/07/01 11:04:22;;;;;;;4.98;3.53;;;;;;;19.88;71.53;96225.97;127908;1093;24675;-86
2021/07/01 11:07:04;;;;;;;5.48;3.95;;;;;;;19.97;72.36;96226.56;127844;1093;22819;-87
2021/07/01 11:09:46;;;;;;;5.33;3.63;;;;;;;20.12;71.79;96224.98;127893;1093;28746;-87
2021/07/01 11:12:20;;;;;;;5.38;3.98;;;;;;;20.01;71.23;96222.06;127927;1093;25641;-87
2021/07/01 11:14:58;;;;;;;4.43;3.67;;;;;;;19.98;71.15;96216.58;127620;1093;163721;-87
2021/07/01 11:17:37;;;;;;;6.53;4.28;;;;;;;19.95;70.88;96209.98;127931;1093;49059;-88
2021/07/01 11:20:21;;;;;;;8.73;4.35;;;;;;;19.91;71.11;96211.83;127906;1093;61106;-87
2021/07/01 11:22:54;;;;;;;6.15;3.70;;;;;;;19.91;70.90;96216.42;127899;1093;23420;-86
2021/07/01 11:25:29;;;;;;;4.58;3.60;;;;;;;19.85;71.31;96224.77;127895;1092;64807;-86
2021/07/01 11:28:18;;;;;;;4.20;3.70;;;;;;;19.97;71.47;96223.88;127964;1093;22783;-87
2021/07/01 11:30:53;;;;;;;6.05;3.80;;;;;;;20.10;71.84;96219.18;127889;1093;24324;-88
2021/07/01 11:33:25;;;;;;;5.33;4.38;;;;;;;20.20;71.35;96221.34;127904;1091;22943;-90
2021/07/01 11:39:13;;;;;;;6.83;4.80;;;;;;;20.42;70.99;96225.34;127878;1093;22797;-86
2021/07/01 11:41:47;;;;;;;5.50;4.60;;;;;;;20.59;71.28;96235.73;127449;1093;22786;-88
2021/07/01 11:44:22;;;;;;;6.50;4.55;;;;;;;20.85;71.20;96243.22;127668;1093;26832;-85
2021/07/01 11:46:54;;;;;;;5.53;4.10;;;;;;;20.96;70.28;96238.80;127859;1093;29645;-88
2021/07/01 11:49:27;;;;;;;6.00;3.95;;;;;;;20.95;69.74;96255.33;127970;1091;25456;-86
2021/07/01 11:52:00;;;;;;;5.83;3.98;;;;;;;20.94;69.93;96251.86;127954;1093;23702;-86
2021/07/01 11:54:32;;;;;;;4.63;4.08;;;;;;;20.81;69.37;96246.95;127933;1092;23350;-86